createdAt,value
2022-07-29T00:02:46.208Z,640.79217
2022-07-29T00:17:48.573Z,660.5549
2022-07-29T00:32:50.978Z,697.72331
2022-07-29T00:47:53.400Z,686.2075
2022-07-29T01:02:55.705Z,694.29638
2022-07-29T01:17:58.026Z,635.03483
2022-07-29T01:33:00.314Z,540.36228
2022-07-29T01:48:02.770Z,435.75463
2022-07-29T02:03:05.031Z,389.84783
2022-07-29T02:18:07.367Z,337.04373
2022-07-29T02:33:09.689Z,289.12886
2022-07-29T02:48:11.988Z,285.56773
2022-07-29T03:03:14.489Z,277.81178
2022-07-29T03:18:16.848Z,256.12456
2022-07-29T03:33:19.707Z,239.70692
2022-07-29T03:48:22.728Z,228.82443
2022-07-29T04:03:25.094Z,236.60835
2022-07-29T04:18:27.473Z,242.7182
2022-07-29T04:33:29.677Z,248.44001
2022-07-29T04:48:32.135Z,229.277
2022-07-29T05:03:34.483Z,219.16302
2022-07-29T05:18:36.790Z,224.39515
2022-07-29T05:33:39.112Z,220.13409
2022-07-29T05:48:41.487Z,211.43501
2022-07-29T06:03:43.901Z,211.17823
2022-07-29T06:18:46.257Z,213.25006
2022-07-29T06:33:48.761Z,205.8046
2022-07-29T06:48:51.221Z,222.81374
2022-07-29T07:03:53.657Z,218.74947
2022-07-29T07:18:55.988Z,209.77705
2022-07-29T07:33:58.272Z,196.28012
2022-07-29T07:49:00.569Z,192.69133
2022-07-29T08:04:02.895Z,188.10557
2022-07-29T08:19:05.204Z,188.51341
2022-07-29T08:34:07.497Z,196.72423
2022-07-29T08:49:09.968Z,200.23544
2022-07-29T09:04:12.312Z,206.53793
2022-07-29T09:19:14.544Z,198.63434
2022-07-29T09:34:16.874Z,196.83557
2022-07-29T09:49:19.279Z,200.12022
2022-07-29T10:04:21.639Z,191.94688
2022-07-29T10:19:23.926Z,196.72423
2022-07-29T10:34:26.193Z,204.71431
2022-07-29T10:49:30.612Z,199.08917
2022-07-29T11:04:33.249Z,201.27842
2022-07-29T11:19:35.830Z,212.59826
2022-07-29T11:34:38.296Z,205.31859
2022-07-29T11:49:44.517Z,202.68608
2022-07-29T12:04:47.074Z,200.12022
2022-07-29T12:19:49.375Z,208.64438
2022-07-29T12:34:53.309Z,209.02057
2022-07-29T12:49:55.714Z,215.09655
2022-07-29T13:04:58.088Z,216.30056
2022-07-29T13:20:00.470Z,219.30122
2022-07-29T13:35:06.338Z,220.97331
2022-07-29T13:50:08.573Z,221.81895
2022-07-29T14:05:10.939Z,238.88366
2022-07-29T14:20:13.392Z,228.82443
2022-07-29T14:35:15.689Z,227.18021
2022-07-29T14:50:17.956Z,233.58888
2022-07-29T15:05:34.387Z,241.37056
2022-07-29T15:20:36.730Z,242.7182
2022-07-29T15:35:39.913Z,246.67784
2022-07-29T15:50:43.156Z,269.41837
2022-07-29T16:05:49.645Z,243.56814
2022-07-29T16:20:51.963Z,236.44749
2022-07-29T16:35:54.235Z,245.63249
2022-07-29T16:50:56.496Z,242.7182
2022-07-29T17:05:58.781Z,252.59014
2022-07-29T17:21:01.200Z,260.73301
2022-07-29T17:36:03.464Z,269.20981
2022-07-29T17:51:05.786Z,292.04236
2022-07-29T18:06:08.010Z,305.10911
2022-07-29T18:21:10.318Z,310.00456
2022-07-29T18:36:12.596Z,331.26502
2022-07-29T18:51:14.960Z,358.59003
2022-07-29T19:06:22.648Z,345.06976
2022-07-29T19:21:27.875Z,337.69828
2022-07-29T19:36:30.152Z,356.38525
2022-07-29T19:51:32.443Z,346.44474
2022-07-29T20:06:34.736Z,348.87752
2022-07-29T20:21:37.275Z,350.28308
2022-07-29T20:36:39.592Z,364.60506
2022-07-29T20:51:43.427Z,389.63292
2022-07-29T21:06:46.358Z,398.19385
2022-07-29T21:21:48.596Z,460.4521
2022-07-29T21:36:51.021Z,478.2097
2022-07-29T21:51:53.357Z,506.29936
2022-07-29T22:06:55.696Z,565.43507
2022-07-29T22:21:57.952Z,521.6191
2022-07-29T22:37:00.419Z,597.9643
2022-07-29T22:52:03.080Z,727.15401
2022-07-29T23:07:05.440Z,809.49706
2022-07-29T23:22:07.706Z,851.89695
2022-07-29T23:37:09.983Z,876.16149
2022-07-29T23:52:12.261Z,947.12232
